createdAt,value
2022-09-02T00:02:31.426Z,98.50
2022-09-02T00:05:33.556Z,98.60
2022-09-02T00:08:36.412Z,98.60
2022-09-02T00:11:40.675Z,98.30
2022-09-02T00:14:42.739Z,98.30
2022-09-02T00:17:44.877Z,98.10
2022-09-02T00:20:49.188Z,98.20
2022-09-02T00:23:51.620Z,98.40
2022-09-02T00:26:56.636Z,98.20
2022-09-02T00:30:02.086Z,98.30
2022-09-02T00:33:04.854Z,98.10
2022-09-02T00:36:07.467Z,98.60
2022-09-02T00:39:10.588Z,98.80
2022-09-02T00:42:12.752Z,99.00
2022-09-02T00:45:15.183Z,98.80
2022-09-02T00:48:17.309Z,99.10
2022-09-02T00:51:19.741Z,99.20
2022-09-02T00:54:24.257Z,99.00
2022-09-02T00:57:32.246Z,98.60
2022-09-02T01:00:39.755Z,99.20
2022-09-02T01:03:42.275Z,99.20
2022-09-02T01:06:44.850Z,99.30
2022-09-02T01:09:47.122Z,99.50
2022-09-02T01:12:49.442Z,99.30
2022-09-02T01:16:02.599Z,99.20
2022-09-02T01:19:10.485Z,99.30
2022-09-02T01:22:20.760Z,99.30
2022-09-02T01:25:27.506Z,99.30
2022-09-02T01:28:29.627Z,99.30
2022-09-02T01:31:31.772Z,99.90
2022-09-02T01:34:33.859Z,99.50
2022-09-02T01:37:38.762Z,99.50
2022-09-02T01:40:41.294Z,99.30
2022-09-02T01:43:43.581Z,99.30
2022-09-02T01:46:45.986Z,99.70
2022-09-02T01:49:48.896Z,99.50
2022-09-02T01:52:51.066Z,99.50
2022-09-02T01:55:53.269Z,99.50
2022-09-02T01:58:55.527Z,99.40
2022-09-02T02:01:58.045Z,99.30
2022-09-02T02:05:00.474Z,99.30
2022-09-02T02:08:03.147Z,99.60
2022-09-02T02:11:06.269Z,99.90
2022-09-02T02:14:08.514Z,99.80
2022-09-02T02:17:10.715Z,99.70
2022-09-02T02:20:15.222Z,99.90
2022-09-02T02:23:18.129Z,99.70
2022-09-02T02:26:20.417Z,99.70
2022-09-02T02:29:23.221Z,99.90
2022-09-02T02:32:26.166Z,99.90
2022-09-02T02:35:28.335Z,99.90
2022-09-02T02:38:31.060Z,99.90
2022-09-02T02:41:34.443Z,99.90
2022-09-02T02:44:36.484Z,99.90
2022-09-02T02:47:43.261Z,99.90
2022-09-02T02:50:45.332Z,99.90
2022-09-02T02:53:47.711Z,99.90
2022-09-02T02:56:49.843Z,99.90
2022-09-02T02:59:51.943Z,99.90
2022-09-02T03:02:58.884Z,99.90
2022-09-02T03:06:01.078Z,99.90
2022-09-02T03:09:04.152Z,99.90
2022-09-02T03:12:06.720Z,99.90
2022-09-02T03:15:11.367Z,99.90
2022-09-02T03:18:13.516Z,99.90
2022-09-02T03:21:16.198Z,99.90
2022-09-02T03:24:18.260Z,99.90
2022-09-02T03:27:20.448Z,99.90
2022-09-02T03:30:25.982Z,99.90
2022-09-02T03:33:29.029Z,99.90
2022-09-02T03:36:38.863Z,99.90
2022-09-02T03:39:41.117Z,99.90
2022-09-02T03:42:43.326Z,99.90
2022-09-02T03:45:49.787Z,99.90
2022-09-02T03:48:52.164Z,99.90
2022-09-02T03:51:54.367Z,99.90
2022-09-02T03:54:56.551Z,99.90
2022-09-02T03:57:58.976Z,99.90
2022-09-02T04:01:01.334Z,99.90
2022-09-02T04:04:05.394Z,99.90
2022-09-02T04:07:07.469Z,99.90
2022-09-02T04:10:09.935Z,99.90
2022-09-02T04:13:12.142Z,99.90
2022-09-02T04:16:18.381Z,99.90
2022-09-02T04:19:20.632Z,99.90
2022-09-02T04:22:22.720Z,99.90
2022-09-02T04:25:27.675Z,99.90
2022-09-02T04:28:29.934Z,99.90
2022-09-02T04:31:32.205Z,99.90
2022-09-02T04:34:34.428Z,99.90
2022-09-02T04:37:36.547Z,99.90
2022-09-02T04:40:44.905Z,99.90
2022-09-02T04:43:47.571Z,99.90
2022-09-02T04:46:50.337Z,99.90
2022-09-02T04:49:53.378Z,99.90
2022-09-02T04:52:55.817Z,99.90
2022-09-02T04:55:58.258Z,99.90
2022-09-02T04:59:01.253Z,99.90
2022-09-02T05:02:05.371Z,99.90
2022-09-02T05:05:07.718Z,99.90
2022-09-02T05:08:10.250Z,99.90
2022-09-02T05:11:18.514Z,99.90
2022-09-02T05:14:20.735Z,99.90
2022-09-02T05:17:23.443Z,99.90
2022-09-02T05:20:26.307Z,99.90
2022-09-02T05:23:28.526Z,99.90
2022-09-02T05:26:33.779Z,99.90
2022-09-02T05:29:45.761Z,99.90
2022-09-02T05:32:50.079Z,99.90
2022-09-02T05:35:54.534Z,99.90
2022-09-02T05:38:56.616Z,99.90
2022-09-02T05:41:58.776Z,99.90
2022-09-02T05:45:00.851Z,99.90
2022-09-02T05:48:23.123Z,99.90
2022-09-02T05:51:26.128Z,99.90
2022-09-02T05:54:33.056Z,99.90
2022-09-02T05:57:35.280Z,99.90
2022-09-02T06:00:39.888Z,99.90
2022-09-02T06:03:41.994Z,99.90
2022-09-02T06:06:44.899Z,99.90
2022-09-02T06:09:47.066Z,99.90
2022-09-02T06:12:49.115Z,99.90
2022-09-02T06:15:51.733Z,99.90
2022-09-02T06:18:53.963Z,99.90
2022-09-02T06:21:57.122Z,99.90
2022-09-02T06:24:59.307Z,99.90
2022-09-02T06:28:06.379Z,99.90
2022-09-02T06:31:18.541Z,99.90
2022-09-02T06:34:22.938Z,99.90
2022-09-02T06:37:25.131Z,99.90
2022-09-02T06:40:27.757Z,99.90
2022-09-02T06:43:35.780Z,99.90
2022-09-02T06:46:48.370Z,99.90
2022-09-02T06:49:53.844Z,99.90
2022-09-02T06:52:55.962Z,98.00
2022-09-02T06:55:58.006Z,97.40
2022-09-02T06:59:00.318Z,95.60
2022-09-02T07:02:03.455Z,95.80
2022-09-02T07:05:15.339Z,94.10
2022-09-02T07:08:17.466Z,93.10
2022-09-02T07:11:22.885Z,92.40
2022-09-02T07:14:27.966Z,92.20
2022-09-02T07:17:30.695Z,92.10
2022-09-02T07:20:55.975Z,91.90
2022-09-02T07:24:02.101Z,91.00
2022-09-02T07:27:06.026Z,91.20
2022-09-02T07:30:08.819Z,90.90
2022-09-02T07:33:14.730Z,89.80
2022-09-02T07:36:21.693Z,88.20
2022-09-02T07:39:23.922Z,85.90
2022-09-02T07:45:34.503Z,79.70
2022-09-02T07:48:37.546Z,76.90
2022-09-02T07:51:43.044Z,79.50
2022-09-02T07:54:45.542Z,77.10
2022-09-02T07:57:48.197Z,78.40
2022-09-02T08:00:51.489Z,76.30
2022-09-02T08:03:53.890Z,73.10
2022-09-02T08:06:56.555Z,71.70
2022-09-02T08:10:01.087Z,70.00
2022-09-02T08:13:06.568Z,71.90
2022-09-02T08:16:09.184Z,71.20
2022-09-02T08:19:12.543Z,72.60
2022-09-02T08:22:15.460Z,70.70
2022-09-02T08:25:20.572Z,69.40
2022-09-02T08:28:22.913Z,69.60
2022-09-02T08:31:25.099Z,67.20
2022-09-02T08:34:27.310Z,66.50
2022-09-02T08:37:31.581Z,65.40
2022-09-02T08:40:42.512Z,64.20
2022-09-02T08:43:46.142Z,65.10
2022-09-02T08:46:52.007Z,68.20
2022-09-02T08:50:00.568Z,68.90
2022-09-02T08:53:21.423Z,70.50
2022-09-02T08:56:23.593Z,69.80
2022-09-02T08:59:27.812Z,67.10
2022-09-02T09:02:33.000Z,64.30
2022-09-02T09:06:09.720Z,61.00
2022-09-02T09:09:27.595Z,58.50
2022-09-02T09:12:36.205Z,55.60
2022-09-02T09:15:49.845Z,57.60
2022-09-02T09:19:27.432Z,55.40
2022-09-02T09:22:37.488Z,54.60
2022-09-02T09:25:41.111Z,54.60
2022-09-02T09:28:47.142Z,56.60
2022-09-02T09:31:56.167Z,55.70
2022-09-02T09:35:10.311Z,55.50
2022-09-02T09:38:14.322Z,54.20
2022-09-02T09:41:24.209Z,50.10
2022-09-02T09:44:47.044Z,53.70
2022-09-02T09:48:12.320Z,52.90
2022-09-02T09:51:16.122Z,54.20
2022-09-02T09:54:18.540Z,55.10
2022-09-02T09:57:21.920Z,56.50
2022-09-02T10:00:32.898Z,56.10
2022-09-02T10:03:42.053Z,58.60
2022-09-02T10:06:44.689Z,57.80
2022-09-02T10:09:46.789Z,59.50
2022-09-02T10:12:51.756Z,59.60
2022-09-02T10:16:11.665Z,61.80
2022-09-02T10:19:44.268Z,64.40
2022-09-02T10:23:25.650Z,62.80
2022-09-02T10:26:41.432Z,63.30
2022-09-02T10:29:59.271Z,64.70
2022-09-02T10:33:10.310Z,66.00
2022-09-02T10:36:36.503Z,67.00
2022-09-02T10:40:08.559Z,64.10
2022-09-02T10:43:24.236Z,58.50
2022-09-02T10:46:27.819Z,56.60
2022-09-02T10:49:48.628Z,59.30
2022-09-02T10:52:53.813Z,59.10
2022-09-02T10:56:05.733Z,58.00
2022-09-02T10:59:14.768Z,58.80
2022-09-02T11:02:22.908Z,58.20
2022-09-02T11:05:53.157Z,58.20
2022-09-02T11:09:06.489Z,59.50
2022-09-02T11:12:21.463Z,58.40
2022-09-02T11:15:47.624Z,58.30
2022-09-02T11:18:58.219Z,53.70
2022-09-02T11:22:15.036Z,54.80
2022-09-02T11:25:32.821Z,56.60
2022-09-02T11:28:44.093Z,57.00
2022-09-02T11:32:15.928Z,57.30
2022-09-02T11:35:28.052Z,55.60
2022-09-02T11:38:59.301Z,54.60
2022-09-02T11:42:28.838Z,55.40
2022-09-02T11:45:41.633Z,54.60
2022-09-02T11:49:10.309Z,54.40
2022-09-02T11:52:24.812Z,56.00
2022-09-02T11:55:38.622Z,57.10
2022-09-02T11:58:49.713Z,58.60
2022-09-02T12:01:55.870Z,59.20
2022-09-02T12:05:35.407Z,60.20
2022-09-02T12:08:40.802Z,59.70
2022-09-02T12:11:49.007Z,60.10
2022-09-02T12:14:51.131Z,60.10
2022-09-02T12:17:53.338Z,60.70
2022-09-02T12:20:59.333Z,62.20
2022-09-02T12:24:01.326Z,62.90
2022-09-02T12:27:08.147Z,61.60
2022-09-02T12:30:13.718Z,61.30
2022-09-02T12:33:33.514Z,62.10
2022-09-02T12:36:42.478Z,62.30
2022-09-02T12:39:44.564Z,63.00
2022-09-02T12:42:48.394Z,64.00
2022-09-02T12:45:50.818Z,63.30
2022-09-02T12:49:15.159Z,64.50
2022-09-02T12:52:35.791Z,62.80
2022-09-02T12:55:38.527Z,62.20
2022-09-02T12:58:46.278Z,61.90
2022-09-02T13:02:02.787Z,62.70
2022-09-02T13:05:42.380Z,63.40
2022-09-02T13:09:10.430Z,63.90
2022-09-02T13:12:30.298Z,64.60
2022-09-02T13:15:58.837Z,65.20
2022-09-02T13:19:36.500Z,65.60
2022-09-02T13:23:00.914Z,65.30
2022-09-02T13:26:47.913Z,65.90
2022-09-02T13:29:55.965Z,67.20
2022-09-02T13:33:06.565Z,66.90
2022-09-02T13:36:09.678Z,67.30
2022-09-02T13:39:20.875Z,68.00
2022-09-02T13:42:31.950Z,68.10
2022-09-02T13:45:36.004Z,67.30
2022-09-02T13:48:40.434Z,68.40
2022-09-02T13:51:45.522Z,69.30
2022-09-02T13:54:53.195Z,68.60
2022-09-02T13:58:03.781Z,68.90
2022-09-02T14:01:20.588Z,67.90
2022-09-02T14:04:23.834Z,68.80
2022-09-02T14:07:40.169Z,69.30
2022-09-02T14:10:44.272Z,69.00
2022-09-02T14:13:50.958Z,68.10
2022-09-02T14:17:13.250Z,68.00
2022-09-02T14:20:15.269Z,68.20
2022-09-02T14:23:17.448Z,69.20
2022-09-02T14:26:42.193Z,68.40
2022-09-02T14:29:47.329Z,68.30
2022-09-02T14:32:49.487Z,68.70
2022-09-02T14:36:13.121Z,69.20
2022-09-02T14:39:19.245Z,69.70
2022-09-02T14:42:21.867Z,69.90
2022-09-02T14:45:33.088Z,70.00
2022-09-02T14:48:39.035Z,69.70
2022-09-02T14:51:46.736Z,70.00
2022-09-02T14:54:50.909Z,70.30
2022-09-02T14:58:03.054Z,70.80
2022-09-02T15:01:08.721Z,70.80
2022-09-02T15:04:11.180Z,70.70
2022-09-02T15:07:16.877Z,70.20
2022-09-02T15:10:22.299Z,70.50
2022-09-02T15:13:24.497Z,71.20
2022-09-02T15:16:26.731Z,71.00
2022-09-02T15:19:28.903Z,71.30
2022-09-02T15:22:31.041Z,71.80
2022-09-02T15:25:34.536Z,71.70
2022-09-02T15:28:38.617Z,72.30
2022-09-02T15:31:42.228Z,73.00
2022-09-02T15:34:44.620Z,73.20
2022-09-02T15:37:50.674Z,73.40
2022-09-02T15:40:52.854Z,73.60
2022-09-02T15:43:55.004Z,73.70
2022-09-02T15:46:57.336Z,74.10
2022-09-02T15:49:59.444Z,74.10
2022-09-02T15:53:01.681Z,74.40
2022-09-02T15:56:03.895Z,74.70
2022-09-02T15:59:15.036Z,75.00
2022-09-02T16:02:17.404Z,75.20
2022-09-02T16:05:21.496Z,75.70
2022-09-02T16:08:23.589Z,76.20
2022-09-02T16:11:25.838Z,76.00
2022-09-02T16:14:28.929Z,75.90
2022-09-02T16:17:30.915Z,76.40
2022-09-02T16:20:33.040Z,77.00
2022-09-02T16:23:36.013Z,77.50
2022-09-02T16:26:40.150Z,77.30
2022-09-02T16:29:42.482Z,76.60
2022-09-02T16:32:45.041Z,77.00
2022-09-02T16:35:47.563Z,77.50
2022-09-02T16:38:50.307Z,77.70
2022-09-02T16:41:56.021Z,77.30
2022-09-02T16:44:58.442Z,77.50
2022-09-02T16:48:00.788Z,78.00
2022-09-02T16:51:04.730Z,77.70
2022-09-02T16:54:07.976Z,77.20
2022-09-02T16:57:10.306Z,78.00
2022-09-02T17:00:13.161Z,78.70
2022-09-02T17:03:15.601Z,78.50
2022-09-02T17:06:18.334Z,78.90
2022-09-02T17:09:20.922Z,79.30
2022-09-02T17:12:23.049Z,79.60
2022-09-02T17:15:26.214Z,79.80
2022-09-02T17:18:28.435Z,80.50
2022-09-02T17:21:45.053Z,81.50
2022-09-02T17:24:50.479Z,81.30
2022-09-02T17:27:55.378Z,81.40
2022-09-02T17:30:58.055Z,82.20
2022-09-02T17:34:02.582Z,81.50
2022-09-02T17:37:05.517Z,82.10
2022-09-02T17:40:32.334Z,82.30
2022-09-02T17:43:38.462Z,83.20
2022-09-02T17:46:41.400Z,83.60
2022-09-02T17:49:47.562Z,83.70
2022-09-02T17:52:49.750Z,85.00
2022-09-02T17:55:59.535Z,85.00
2022-09-02T17:59:20.233Z,85.50
2022-09-02T18:02:40.758Z,85.60
2022-09-02T18:06:03.737Z,85.80
2022-09-02T18:09:10.892Z,85.50
2022-09-02T18:12:13.803Z,86.40
2022-09-02T18:15:18.920Z,85.90
2022-09-02T18:18:21.708Z,86.20
2022-09-02T18:21:30.639Z,87.50
2022-09-02T18:24:58.703Z,87.40
2022-09-02T18:28:17.312Z,87.30
2022-09-02T18:31:28.874Z,87.40
2022-09-02T18:34:52.580Z,86.80
2022-09-02T18:38:16.899Z,87.10
2022-09-02T18:41:20.260Z,87.70
2022-09-02T18:44:54.657Z,87.90
2022-09-02T18:48:19.676Z,88.10
2022-09-02T18:51:43.414Z,88.30
2022-09-02T18:54:48.786Z,88.60
2022-09-02T18:58:00.102Z,88.70
2022-09-02T19:01:21.098Z,89.30
2022-09-02T19:04:29.371Z,89.30
2022-09-02T19:07:52.945Z,89.00
2022-09-02T19:11:26.015Z,89.20
2022-09-02T19:14:29.553Z,89.70
2022-09-02T19:17:31.646Z,89.60
2022-09-02T19:20:35.730Z,90.00
2022-09-02T19:23:38.159Z,90.30
2022-09-02T19:26:44.264Z,90.50
2022-09-02T19:29:51.524Z,90.40
2022-09-02T19:32:58.934Z,90.70
2022-09-02T19:36:01.205Z,90.80
2022-09-02T19:39:03.323Z,90.80
2022-09-02T19:42:06.685Z,91.10
2022-09-02T19:45:12.974Z,91.30
2022-09-02T19:48:19.109Z,91.40
2022-09-02T19:51:26.559Z,91.50
2022-09-02T19:54:29.780Z,91.60
2022-09-02T19:57:31.869Z,91.80
2022-09-02T20:00:34.457Z,92.10
2022-09-02T20:03:36.619Z,92.30
2022-09-02T20:06:39.714Z,92.40
2022-09-02T20:09:41.778Z,92.40
2022-09-02T20:12:44.003Z,92.50
2022-09-02T20:15:46.051Z,92.90
2022-09-02T20:18:50.340Z,93.00
2022-09-02T20:21:52.333Z,93.20
2022-09-02T20:24:55.431Z,93.60
2022-09-02T20:28:08.996Z,93.90
2022-09-02T20:31:29.591Z,94.10
2022-09-02T20:34:56.414Z,93.80
2022-09-02T20:38:21.251Z,93.90
2022-09-02T20:41:26.194Z,93.80
2022-09-02T20:45:09.829Z,94.40
2022-09-02T20:48:27.596Z,94.30
2022-09-02T20:51:59.377Z,94.70
2022-09-02T20:55:22.020Z,94.90
2022-09-02T20:58:39.945Z,95.10
2022-09-02T21:01:45.485Z,95.10
2022-09-02T21:04:53.267Z,95.10
2022-09-02T21:08:06.483Z,95.20
2022-09-02T21:11:13.140Z,94.90
2022-09-02T21:14:28.378Z,95.50
2022-09-02T21:17:56.267Z,95.70
2022-09-02T21:21:10.718Z,95.50
2022-09-02T21:24:18.665Z,95.70
2022-09-02T21:27:55.602Z,95.60
2022-09-02T21:31:12.809Z,95.70
2022-09-02T21:34:30.929Z,95.60
2022-09-02T21:37:36.797Z,95.80
2022-09-02T21:41:04.062Z,95.80
2022-09-02T21:44:09.303Z,95.90
2022-09-02T21:47:11.574Z,96.10
2022-09-02T21:50:22.591Z,96.40
2022-09-02T21:53:48.163Z,96.50
2022-09-02T21:57:15.186Z,96.60
2022-09-02T22:00:18.719Z,97.10
2022-09-02T22:03:43.922Z,97.10
2022-09-02T22:06:51.255Z,97.10
2022-09-02T22:10:05.768Z,97.50
2022-09-02T22:13:08.239Z,96.80
2022-09-02T22:16:20.888Z,96.90
2022-09-02T22:19:30.326Z,97.00
2022-09-02T22:22:38.997Z,97.10
2022-09-02T22:25:42.730Z,97.10
2022-09-02T22:28:49.876Z,97.00
2022-09-02T22:31:58.602Z,96.90
2022-09-02T22:35:13.083Z,97.20
2022-09-02T22:38:16.725Z,97.40
2022-09-02T22:41:25.454Z,97.40
2022-09-02T22:45:03.942Z,97.50
2022-09-02T22:48:33.740Z,97.80
2022-09-02T22:52:08.390Z,97.90
2022-09-02T22:55:10.752Z,98.20
2022-09-02T22:58:42.097Z,98.30
2022-09-02T23:02:20.349Z,98.30
2022-09-02T23:05:49.351Z,98.10
2022-09-02T23:08:51.685Z,98.40
2022-09-02T23:12:18.326Z,98.20
2022-09-02T23:15:35.824Z,98.10
2022-09-02T23:19:09.791Z,98.10
2022-09-02T23:22:43.290Z,98.30
2022-09-02T23:25:51.675Z,98.10
2022-09-02T23:29:01.539Z,98.10
2022-09-02T23:32:22.729Z,98.00
2022-09-02T23:35:36.018Z,98.30
2022-09-02T23:38:47.163Z,98.20
2022-09-02T23:41:49.602Z,98.10
2022-09-02T23:44:53.727Z,98.00
2022-09-02T23:48:04.838Z,98.00
2022-09-02T23:51:06.891Z,97.90
2022-09-02T23:54:26.107Z,97.60
2022-09-02T23:58:35.769Z,97.70
